Time,TemperatureF,DewpointF,PressureIn,WindDirection,WindDirectionDegrees,WindSpeedMPH,WindSpeedGustMPH,Humidity,HourlyPrecipIn,Conditions,Clouds,dailyrainin,SolarRadiationWatts/m^2,SoftwareType,DateUTC
2013-06-14 00:02:00,47.0,43.0,-100.00,SSW,207,1.0,5.0,86,0.00,,,0.00,12.000000,,2013-06-14 08:02:00,
2013-06-14 00:12:00,47.0,43.0,-100.00,SSW,207,1.0,5.0,86,0.00,,,0.00,12.000000,,2013-06-14 08:12:00,
2013-06-14 00:22:00,47.0,43.0,-100.00,SSW,207,1.0,5.0,86,0.00,,,0.00,12.000000,,2013-06-14 08:22:00,
2013-06-14 00:53:00,43.0,42.0,-100.00,SE,142,1.0,2.0,95,0.00,,,0.00,2.000000,,2013-06-14 08:53:00,
2013-06-14 01:53:00,46.0,46.0,-100.00,West,268,2.0,7.0,99,-99.99,,,0.00,0.000000,,2013-06-14 09:53:00,
2013-06-14 02:01:00,46.0,46.0,-100.00,West,268,2.0,7.0,99,-99.99,,,0.00,0.000000,,2013-06-14 10:01:00,
2013-06-14 02:11:00,46.0,46.0,-100.00,West,268,2.0,7.0,99,-99.99,,,0.00,0.000000,,2013-06-14 10:11:00,
2013-06-14 02:22:00,46.0,46.0,-100.00,West,268,2.0,7.0,99,-99.99,,,0.00,0.000000,,2013-06-14 10:22:00,
2013-06-14 03:52:00,39.0,38.0,-100.00,South,187,2.0,4.0,97,-99.99,,,0.00,0.000000,,2013-06-14 11:52:00,
2013-06-14 04:52:00,39.0,39.0,-100.00,South,170,2.0,4.0,99,0.00,,,0.00,2.000000,,2013-06-14 12:52:00,
2013-06-14 05:11:00,39.0,39.0,-100.00,South,170,2.0,4.0,99,0.00,,,0.00,2.000000,,2013-06-14 13:11:00,
2013-06-14 05:22:00,39.0,39.0,-100.00,South,170,2.0,4.0,99,0.00,,,0.00,2.000000,,2013-06-14 13:22:00,
2013-06-14 05:53:00,41.0,41.0,-100.00,ESE,117,1.0,5.0,100,0.00,,,0.00,10.000000,,2013-06-14 13:53:00,
2013-06-14 06:02:00,41.0,41.0,-100.00,ESE,117,1.0,5.0,100,0.00,,,0.00,10.000000,,2013-06-14 14:02:00,
2013-06-14 06:11:00,41.0,41.0,-100.00,ESE,117,1.0,5.0,100,0.00,,,0.00,10.000000,,2013-06-14 14:11:00,
2013-06-14 06:22:00,41.0,41.0,-100.00,ESE,117,1.0,5.0,100,0.00,,,0.00,10.000000,,2013-06-14 14:22:00,
2013-06-14 06:52:00,42.0,42.0,-100.00,SE,134,1.0,3.0,100,0.00,,,0.00,24.000000,,2013-06-14 14:52:00,
2013-06-14 07:01:00,42.0,42.0,-100.00,SE,134,1.0,3.0,100,0.00,,,0.00,24.000000,,2013-06-14 15:01:00,
2013-06-14 07:11:00,42.0,42.0,-100.00,SE,134,1.0,3.0,100,0.00,,,0.00,24.000000,,2013-06-14 15:11:00,
2013-06-14 07:53:00,49.0,47.0,-100.00,WNW,287,2.0,3.0,94,-99.99,,,0.00,84.000000,,2013-06-14 15:53:00,
2013-06-14 08:01:00,49.0,47.0,-100.00,WNW,287,2.0,3.0,94,-99.99,,,0.00,84.000000,,2013-06-14 16:01:00,
2013-06-14 08:11:00,49.0,47.0,-100.00,WNW,287,2.0,3.0,94,-99.99,,,0.00,84.000000,,2013-06-14 16:11:00,
2013-06-14 08:22:00,49.0,47.0,-100.00,WNW,287,2.0,3.0,94,-99.99,,,0.00,84.000000,,2013-06-14 16:22:00,
2013-06-14 08:53:00,58.0,48.0,-100.00,WNW,303,2.0,4.0,69,0.00,,,0.00,158.000000,,2013-06-14 16:53:00,
2013-06-14 09:02:00,58.0,48.0,-100.00,WNW,303,2.0,4.0,69,0.00,,,0.00,158.000000,,2013-06-14 17:02:00,
2013-06-14 09:11:00,58.0,48.0,-100.00,WNW,303,2.0,4.0,69,0.00,,,0.00,158.000000,,2013-06-14 17:11:00,
2013-06-14 09:22:00,58.0,48.0,-100.00,WNW,303,2.0,4.0,69,0.00,,,0.00,158.000000,,2013-06-14 17:22:00,
2013-06-14 09:53:00,61.0,48.0,-100.00,West,263,2.0,7.0,63,0.00,,,0.00,457.000000,,2013-06-14 17:53:00,
2013-06-14 10:02:00,61.0,48.0,-100.00,West,263,2.0,7.0,63,0.00,,,0.00,457.000000,,2013-06-14 18:02:00,
2013-06-14 10:11:00,61.0,48.0,-100.00,West,263,2.0,7.0,63,0.00,,,0.00,457.000000,,2013-06-14 18:11:00,
2013-06-14 10:21:00,61.0,48.0,-100.00,West,263,2.0,7.0,63,0.00,,,0.00,457.000000,,2013-06-14 18:21:00,
2013-06-14 10:52:00,64.0,47.0,-100.00,NE,45,3.0,6.0,53,0.00,,,0.00,582.000000,,2013-06-14 18:52:00,
2013-06-14 11:01:00,64.0,47.0,-100.00,NE,45,3.0,6.0,53,0.00,,,0.00,582.000000,,2013-06-14 19:01:00,
2013-06-14 11:11:00,64.0,47.0,-100.00,NE,45,3.0,6.0,53,0.00,,,0.00,582.000000,,2013-06-14 19:11:00,
2013-06-14 11:21:00,64.0,47.0,-100.00,NE,45,3.0,6.0,53,0.00,,,0.00,582.000000,,2013-06-14 19:21:00,
2013-06-14 11:53:00,66.0,47.0,-100.00,ESE,120,3.0,7.0,51,0.00,,,-99.99,686.000000,,2013-06-14 19:53:00,
2013-06-14 12:01:00,66.0,47.0,-100.00,ESE,120,3.0,7.0,51,0.00,,,-99.99,686.000000,,2013-06-14 20:01:00,
2013-06-14 12:11:00,66.0,47.0,-100.00,ESE,120,3.0,7.0,51,0.00,,,-99.99,686.000000,,2013-06-14 20:11:00,
2013-06-14 12:22:00,66.0,47.0,-100.00,ESE,120,3.0,7.0,51,0.00,,,-99.99,686.000000,,2013-06-14 20:22:00,
2013-06-14 12:53:00,68.0,46.0,-100.00,NE,36,4.0,9.0,46,0.00,,,0.00,764.000000,,2013-06-14 20:53:00,
2013-06-14 13:02:00,68.0,46.0,-100.00,NE,36,4.0,9.0,46,0.00,,,0.00,764.000000,,2013-06-14 21:02:00,
2013-06-14 13:11:00,68.0,46.0,-100.00,NE,36,4.0,9.0,46,0.00,,,0.00,764.000000,,2013-06-14 21:11:00,
2013-06-14 13:22:00,68.0,46.0,-100.00,NE,36,4.0,9.0,46,0.00,,,0.00,764.000000,,2013-06-14 21:22:00,
2013-06-14 13:52:00,69.0,47.0,-100.00,NNE,27,4.0,9.0,45,0.00,,,0.00,809.000000,,2013-06-14 21:52:00,
2013-06-14 14:01:00,69.0,47.0,-100.00,NNE,27,4.0,9.0,45,0.00,,,0.00,809.000000,,2013-06-14 22:01:00,
2013-06-14 14:11:00,69.0,47.0,-100.00,NNE,27,4.0,9.0,45,0.00,,,0.00,809.000000,,2013-06-14 22:11:00,
2013-06-14 14:22:00,69.0,47.0,-100.00,NNE,27,4.0,9.0,45,0.00,,,0.00,809.000000,,2013-06-14 22:22:00,
2013-06-14 14:53:00,71.0,47.0,-100.00,NNE,18,4.0,10.0,42,0.00,,,0.00,819.000000,,2013-06-14 22:53:00,
2013-06-14 15:01:00,71.0,47.0,-100.00,NNE,18,4.0,10.0,42,0.00,,,0.00,819.000000,,2013-06-14 23:01:00,
2013-06-14 15:11:00,71.0,47.0,-100.00,NNE,18,4.0,10.0,42,0.00,,,0.00,819.000000,,2013-06-14 23:11:00,
2013-06-14 15:22:00,71.0,47.0,-100.00,NNE,18,4.0,10.0,42,0.00,,,0.00,819.000000,,2013-06-14 23:22:00,
2013-06-14 15:52:00,72.0,46.0,-100.00,NNW,342,5.0,9.0,39,0.00,,,0.00,792.000000,,2013-06-14 23:52:00,
2013-06-14 16:01:00,72.0,46.0,-100.00,NNW,342,5.0,9.0,39,0.00,,,0.00,792.000000,,2013-06-15 00:01:00,
2013-06-14 16:11:00,72.0,46.0,-100.00,NNW,342,5.0,9.0,39,0.00,,,0.00,792.000000,,2013-06-15 00:11:00,
2013-06-14 16:22:00,72.0,46.0,-100.00,NNW,342,5.0,9.0,39,0.00,,,0.00,792.000000,,2013-06-15 00:22:00,
2013-06-14 16:53:00,74.0,45.0,-100.00,North,353,5.0,9.0,35,0.00,,,-99.99,733.000000,,2013-06-15 00:53:00,
2013-06-14 17:01:00,74.0,45.0,-100.00,North,353,5.0,9.0,35,0.00,,,-99.99,733.000000,,2013-06-15 01:01:00,
2013-06-14 17:11:00,74.0,45.0,-100.00,North,353,5.0,9.0,35,0.00,,,-99.99,733.000000,,2013-06-15 01:11:00,
2013-06-14 17:22:00,74.0,45.0,-100.00,North,353,5.0,9.0,35,0.00,,,-99.99,733.000000,,2013-06-15 01:22:00,
2013-06-14 17:54:00,74.0,47.0,-100.00,NNE,22,4.0,9.0,39,0.00,,,0.00,640.000000,,2013-06-15 01:54:00,
2013-06-14 18:02:00,74.0,47.0,-100.00,NNE,22,4.0,9.0,39,0.00,,,0.00,640.000000,,2013-06-15 02:02:00,
2013-06-14 18:11:00,74.0,47.0,-100.00,NNE,22,4.0,9.0,39,0.00,,,0.00,640.000000,,2013-06-15 02:11:00,
2013-06-14 18:22:00,74.0,47.0,-100.00,NNE,22,4.0,9.0,39,0.00,,,0.00,640.000000,,2013-06-15 02:22:00,
2013-06-14 18:53:00,75.0,50.0,-100.00,North,6,4.0,10.0,41,0.00,,,0.00,526.000000,,2013-06-15 02:53:00,
2013-06-14 19:01:00,75.0,50.0,-100.00,North,6,4.0,10.0,41,0.00,,,0.00,526.000000,,2013-06-15 03:01:00,
2013-06-14 19:11:00,75.0,50.0,-100.00,North,6,4.0,10.0,41,0.00,,,0.00,526.000000,,2013-06-15 03:11:00,
2013-06-14 19:23:00,75.0,50.0,-100.00,North,6,4.0,10.0,41,0.00,,,0.00,526.000000,,2013-06-15 03:23:00,
2013-06-14 19:53:00,73.0,45.0,-100.00,North,1,4.0,8.0,37,0.00,,,0.00,389.000000,,2013-06-15 03:53:00,
2013-06-14 20:01:00,73.0,45.0,-100.00,North,1,4.0,8.0,37,0.00,,,0.00,389.000000,,2013-06-15 04:01:00,
2013-06-14 20:11:00,73.0,45.0,-100.00,North,1,4.0,8.0,37,0.00,,,0.00,389.000000,,2013-06-15 04:11:00,
2013-06-14 20:22:00,73.0,45.0,-100.00,North,1,4.0,8.0,37,0.00,,,0.00,389.000000,,2013-06-15 04:22:00,
2013-06-14 20:54:00,71.0,46.0,-100.00,NNW,330,4.0,8.0,41,0.00,,,-99.99,175.000000,,2013-06-15 04:54:00,
2013-06-14 21:02:00,71.0,46.0,-100.00,NNW,330,4.0,8.0,41,0.00,,,-99.99,175.000000,,2013-06-15 05:02:00,
2013-06-14 21:12:00,71.0,46.0,-100.00,NNW,330,4.0,8.0,41,0.00,,,-99.99,175.000000,,2013-06-15 05:12:00,
2013-06-14 21:22:00,71.0,46.0,-100.00,NNW,330,4.0,8.0,41,0.00,,,-99.99,175.000000,,2013-06-15 05:22:00,
2013-06-14 21:52:00,67.0,44.0,-100.00,NNW,339,2.0,6.0,44,0.00,,,0.00,130.000000,,2013-06-15 05:52:00,
2013-06-14 22:02:00,67.0,44.0,-100.00,NNW,339,2.0,6.0,44,0.00,,,0.00,130.000000,,2013-06-15 06:02:00,
2013-06-14 22:12:00,67.0,44.0,-100.00,NNW,339,2.0,6.0,44,0.00,,,0.00,130.000000,,2013-06-15 06:12:00,
2013-06-14 22:24:00,67.0,44.0,-100.00,NNW,339,2.0,6.0,44,0.00,,,0.00,130.000000,,2013-06-15 06:24:00,
2013-06-14 22:53:00,58.0,46.0,-100.00,SSW,211,0.0,4.0,64,0.00,,,0.00,23.000000,,2013-06-15 06:53:00,
2013-06-14 23:01:00,58.0,46.0,-100.00,SSW,211,0.0,4.0,64,0.00,,,0.00,23.000000,,2013-06-15 07:01:00,
2013-06-14 23:11:00,58.0,46.0,-100.00,SSW,211,0.0,4.0,64,0.00,,,0.00,23.000000,,2013-06-15 07:11:00,
2013-06-14 23:23:00,58.0,46.0,-100.00,SSW,211,0.0,4.0,64,0.00,,,0.00,23.000000,,2013-06-15 07:23:00,
2013-06-14 23:53:00,51.0,46.0,-100.00,South,186,1.0,3.0,83,0.00,,,0.00,9.000000,,2013-06-15 07:53:00,